Time;durP1;ratioP1;P1;durP2;ratioP2;P2;SDS_P1;SDS_P2;PMS_P1;PMS_P2;Temp;Humidity;BMP_temperature;BMP_pressure;BME280_temperature;BME280_humidity;BME280_pressure;Samples;Min_cycle;Max_cycle;Signal;HPM_P1;HPM_P2
2023/08/04 00:01:40;;;;;;;6.88;3.65;;;17.00;99.90;;;;;;5036577;28;20227;-24
2023/08/04 00:04:07;;;;;;;7.83;3.43;;;17.00;99.90;;;;;;5045385;28;20197;-24
2023/08/04 00:06:35;;;;;;;8.73;3.13;;;17.00;99.90;;;;;;5024961;28;20229;-24
2023/08/04 00:09:04;;;;;;;9.43;3.50;;;17.00;99.90;;;;;;5023552;28;20197;-24
2023/08/04 00:11:34;;;;;;;7.33;3.63;;;17.00;99.90;;;;;;5041663;28;20212;-24
2023/08/04 00:14:01;;;;;;;8.77;4.17;;;17.00;99.90;;;;;;5043777;28;20207;-24
2023/08/04 00:16:28;;;;;;;6.70;3.53;;;17.00;99.90;;;;;;5043770;28;20253;-24
2023/08/04 00:18:56;;;;;;;10.50;3.97;;;16.90;99.90;;;;;;5043509;28;20634;-24
2023/08/04 00:21:23;;;;;;;9.60;4.23;;;16.90;99.90;;;;;;5039851;28;20297;-24
2023/08/04 00:23:57;;;;;;;7.40;3.37;;;16.90;99.90;;;;;;5039329;28;20209;-24
2023/08/04 00:26:28;;;;;;;7.33;3.67;;;16.90;99.90;;;;;;5038326;28;20220;-24
2023/08/04 00:28:57;;;;;;;9.47;4.10;;;16.90;99.90;;;;;;5043507;28;20301;-24
2023/08/04 00:31:27;;;;;;;6.63;3.77;;;16.90;99.90;;;;;;5025948;28;20200;-24
2023/08/04 00:34:02;;;;;;;10.17;3.90;;;16.90;99.90;;;;;;5043532;28;20274;-24
2023/08/04 00:36:34;;;;;;;5.80;3.53;;;16.90;99.90;;;;;;5043767;28;20303;-24
2023/08/04 00:39:01;;;;;;;7.93;3.87;;;16.90;99.90;;;;;;5044243;28;20289;-24
2023/08/04 00:41:31;;;;;;;8.53;4.17;;;16.80;99.90;;;;;;5030420;28;20209;-24
2023/08/04 00:43:59;;;;;;;9.80;4.33;;;16.80;99.90;;;;;;5007848;28;20314;-24
2023/08/04 00:46:26;;;;;;;10.43;4.60;;;16.70;99.90;;;;;;5023624;28;20205;-24
2023/08/04 00:48:54;;;;;;;11.60;4.03;;;16.70;99.90;;;;;;5023491;28;20205;-24
2023/08/04 00:51:23;;;;;;;9.80;3.87;;;16.70;99.90;;;;;;5031796;28;20204;-24
2023/08/04 00:53:50;;;;;;;6.63;3.77;;;16.70;99.90;;;;;;5042866;28;20267;-24
2023/08/04 00:56:18;;;;;;;6.37;4.00;;;16.60;99.90;;;;;;5036157;28;20725;-24
2023/08/04 00:58:45;;;;;;;8.47;3.70;;;16.60;99.90;;;;;;5020686;28;20692;-24
2023/08/04 01:01:13;;;;;;;7.57;4.50;;;16.60;99.90;;;;;;5013823;28;20277;-24
2023/08/04 01:03:41;;;;;;;8.07;3.93;;;16.60;99.90;;;;;;5028359;28;20220;-24
2023/08/04 01:06:46;;;;;;;8.00;4.13;;;16.60;99.90;;;;;;5023478;28;20210;-24
2023/08/04 01:09:30;;;;;;;8.43;4.33;;;16.50;99.90;;;;;;5018443;28;20224;-24
2023/08/04 01:12:12;;;;;;;7.60;3.70;;;16.50;99.90;;;;;;5027968;28;20308;-24
2023/08/04 01:14:42;;;;;;;8.60;3.90;;;16.50;99.90;;;;;;5026983;28;20197;-24
2023/08/04 01:17:31;;;;;;;8.80;4.30;;;16.50;99.90;;;;;;5015984;28;20197;-24
2023/08/04 01:20:04;;;;;;;6.90;4.30;;;16.50;99.90;;;;;;5028490;28;20209;-24
2023/08/04 01:22:34;;;;;;;7.43;4.40;;;16.40;99.90;;;;;;5029790;28;20636;-24
2023/08/04 01:25:04;;;;;;;9.67;3.93;;;16.40;99.90;;;;;;5008279;28;20814;-24
2023/08/04 01:27:46;;;;;;;10.20;4.22;;;16.40;99.90;;;;;;5034056;28;20638;-24
2023/08/04 01:30:21;;;;;;;8.23;3.73;;;16.40;99.90;;;;;;5028548;28;20691;-24
2023/08/04 01:32:48;;;;;;;6.37;3.83;;;16.30;99.90;;;;;;5027421;28;20487;-24
2023/08/04 01:35:17;;;;;;;7.83;3.77;;;16.30;99.90;;;;;;5026526;28;20209;-24
2023/08/04 01:37:46;;;;;;;6.90;4.03;;;16.30;99.90;;;;;;5027278;28;20241;-24
2023/08/04 01:40:14;;;;;;;5.83;3.80;;;16.30;99.90;;;;;;5028052;28;20251;-24
2023/08/04 01:42:41;;;;;;;5.77;4.40;;;16.30;99.90;;;;;;5039865;28;20584;-24
2023/08/04 01:45:11;;;;;;;8.00;4.07;;;16.20;99.90;;;;;;5046345;28;20208;-24
2023/08/04 01:47:42;;;;;;;7.77;3.80;;;16.20;99.90;;;;;;5046378;28;20201;-24
2023/08/04 01:50:09;;;;;;;9.23;4.50;;;16.20;99.90;;;;;;5030581;28;20649;-24
2023/08/04 01:52:39;;;;;;;8.17;4.23;;;16.20;99.90;;;;;;5032496;28;20222;-24
2023/08/04 01:55:07;;;;;;;6.63;3.90;;;16.30;99.90;;;;;;5039644;28;20591;-24
2023/08/04 01:57:36;;;;;;;6.60;3.60;;;16.30;99.90;;;;;;5038720;28;20205;-24
2023/08/04 02:00:13;;;;;;;7.43;3.50;;;16.30;99.90;;;;;;5048058;28;20215;-24
2023/08/04 02:02:44;;;;;;;9.13;4.10;;;16.30;99.90;;;;;;5042402;28;20646;-24
2023/08/04 02:05:11;;;;;;;10.37;4.00;;;16.30;99.90;;;;;;5046452;28;20572;-24
2023/08/04 02:07:38;;;;;;;9.57;4.23;;;16.30;99.90;;;;;;5027243;28;20221;-24
2023/08/04 02:10:09;;;;;;;7.93;3.57;;;16.30;99.90;;;;;;5028079;28;20658;-24
2023/08/04 02:12:38;;;;;;;9.13;3.93;;;16.40;99.90;;;;;;5035182;28;20274;-24
2023/08/04 02:15:06;;;;;;;10.00;4.20;;;16.30;99.90;;;;;;5045834;28;20200;-24
2023/08/04 02:17:36;;;;;;;6.93;4.60;;;16.30;99.90;;;;;;5044630;28;20604;-24
2023/08/04 02:20:05;;;;;;;7.90;4.10;;;16.30;99.90;;;;;;5047212;28;20204;-24
2023/08/04 02:22:32;;;;;;;9.13;4.13;;;16.30;99.90;;;;;;5037537;28;20224;-24
2023/08/04 02:24:59;;;;;;;6.97;4.13;;;16.30;99.90;;;;;;5025520;28;20197;-24
2023/08/04 02:27:26;;;;;;;7.63;4.33;;;16.30;99.90;;;;;;5032597;28;20238;-24
2023/08/04 02:29:58;;;;;;;10.33;4.13;;;16.30;99.90;;;;;;5046909;28;20658;-24
2023/08/04 02:32:25;;;;;;;8.30;4.17;;;16.20;99.90;;;;;;5043040;28;20676;-31
2023/08/04 02:34:55;;;;;;;7.90;4.40;;;16.20;99.90;;;;;;5045919;28;20204;-31
2023/08/04 02:37:25;;;;;;;7.20;4.40;;;16.20;99.90;;;;;;5046820;28;20215;-31
2023/08/04 02:39:52;;;;;;;8.40;3.93;;;16.20;99.90;;;;;;5039665;28;20208;-31
2023/08/04 02:42:19;;;;;;;5.30;3.63;;;16.20;99.90;;;;;;5027769;28;20302;-32
2023/08/04 02:44:46;;;;;;;11.00;4.17;;;16.20;99.90;;;;;;5027785;28;20204;-31
2023/08/04 02:47:13;;;;;;;6.03;3.53;;;16.20;99.90;;;;;;5046604;28;20253;-31
2023/08/04 02:49:40;;;;;;;8.83;4.50;;;16.20;99.90;;;;;;5028574;28;20227;-31
2023/08/04 02:52:14;;;;;;;7.27;3.87;;;16.20;99.90;;;;;;5042289;28;20208;-31
2023/08/04 02:54:42;;;;;;;7.90;4.07;;;16.20;99.90;;;;;;5042205;28;20773;-31
2023/08/04 02:57:11;;;;;;;6.33;3.60;;;16.20;99.90;;;;;;5023847;28;20212;-31
2023/08/04 02:59:39;;;;;;;5.47;3.80;;;16.20;99.90;;;;;;5045286;28;20707;-31
2023/08/04 03:02:06;;;;;;;6.37;3.73;;;16.20;99.90;;;;;;5046424;28;20651;-31
2023/08/04 03:04:33;;;;;;;6.17;3.73;;;16.20;99.90;;;;;;5040236;28;20267;-31
2023/08/04 03:07:01;;;;;;;5.97;3.83;;;16.30;99.90;;;;;;5045401;28;20204;-31
2023/08/04 03:09:28;;;;;;;8.90;4.10;;;16.30;99.90;;;;;;5044186;28;20207;-31
2023/08/04 03:11:57;;;;;;;5.63;3.67;;;16.30;99.90;;;;;;5028609;28;20244;-31
2023/08/04 03:14:24;;;;;;;8.47;3.67;;;16.30;99.90;;;;;;5012245;28;20288;-31
2023/08/04 03:16:52;;;;;;;6.30;3.80;;;16.30;99.90;;;;;;5040884;28;20219;-31
2023/08/04 03:19:21;;;;;;;8.20;4.23;;;16.30;99.90;;;;;;5044744;28;20246;-31
2023/08/04 03:21:50;;;;;;;5.93;3.70;;;16.30;99.90;;;;;;5044530;28;20223;-31
2023/08/04 03:24:20;;;;;;;7.10;4.10;;;16.30;99.90;;;;;;5043540;28;20197;-31
2023/08/04 03:26:54;;;;;;;7.37;4.10;;;16.30;99.90;;;;;;5043226;28;20563;-31
2023/08/04 03:29:22;;;;;;;7.10;3.90;;;16.30;99.90;;;;;;5028726;28;20216;-31
2023/08/04 03:31:54;;;;;;;6.93;3.57;;;16.30;99.90;;;;;;5031092;28;20213;-32
2023/08/04 03:34:21;;;;;;;8.57;4.27;;;16.30;99.90;;;;;;5008341;28;20211;-31
2023/08/04 03:36:50;;;;;;;7.33;4.30;;;16.40;99.90;;;;;;5022560;28;20197;-31
2023/08/04 03:39:19;;;;;;;8.13;4.50;;;16.40;99.90;;;;;;5042148;28;20301;-31
2023/08/04 03:41:46;;;;;;;7.63;4.20;;;16.40;99.90;;;;;;5024746;28;20953;-31
2023/08/04 03:44:14;;;;;;;8.10;3.97;;;16.40;99.90;;;;;;5042049;28;20540;-31
2023/08/04 03:46:41;;;;;;;10.63;4.47;;;16.40;99.90;;;;;;5027798;28;20618;-31
2023/08/04 03:49:11;;;;;;;9.53;4.67;;;16.40;99.90;;;;;;5029589;28;20196;-31
2023/08/04 03:51:40;;;;;;;10.20;4.07;;;16.40;99.90;;;;;;5007965;28;20204;-31
2023/08/04 03:54:08;;;;;;;7.10;3.90;;;16.40;99.90;;;;;;5021286;28;20207;-31
2023/08/04 03:56:35;;;;;;;9.73;4.33;;;16.40;99.90;;;;;;5023632;28;20239;-31
2023/08/04 03:59:02;;;;;;;6.73;4.07;;;16.40;99.90;;;;;;5040941;28;20270;-31
2023/08/04 04:01:30;;;;;;;10.23;4.53;;;16.30;99.90;;;;;;5043714;28;20575;-31
2023/08/04 04:03:59;;;;;;;6.70;3.80;;;16.30;99.90;;;;;;5043559;28;20208;-31
2023/08/04 04:06:27;;;;;;;7.63;4.77;;;16.40;99.90;;;;;;5037427;28;20208;-31
2023/08/04 04:08:54;;;;;;;7.70;4.47;;;16.30;99.90;;;;;;5044859;28;20678;-31
2023/08/04 04:11:23;;;;;;;6.60;3.90;;;16.30;99.90;;;;;;5045781;28;20251;-31
2023/08/04 04:13:53;;;;;;;5.73;4.00;;;16.30;99.90;;;;;;5039640;28;20295;-31
2023/08/04 04:16:26;;;;;;;9.60;4.33;;;16.30;99.90;;;;;;5043788;28;20548;-31
2023/08/04 04:18:53;;;;;;;6.47;4.03;;;16.30;99.90;;;;;;5045469;28;20577;-31
2023/08/04 04:21:20;;;;;;;7.83;3.63;;;16.20;99.90;;;;;;5043907;28;20650;-31
2023/08/04 04:23:47;;;;;;;6.00;3.87;;;16.20;99.90;;;;;;5031450;28;20752;-31
2023/08/04 04:26:15;;;;;;;8.27;3.83;;;16.20;99.90;;;;;;5039871;28;20220;-31
2023/08/04 04:28:44;;;;;;;7.50;3.97;;;16.20;99.90;;;;;;5041159;28;20210;-31
2023/08/04 04:31:11;;;;;;;5.30;3.40;;;16.20;99.90;;;;;;5043719;28;20196;-31
2023/08/04 04:33:38;;;;;;;7.57;3.90;;;16.20;99.90;;;;;;5043400;28;20530;-31
2023/08/04 04:36:06;;;;;;;7.90;4.13;;;16.20;99.90;;;;;;5023291;28;20254;-31
2023/08/04 04:38:38;;;;;;;10.57;4.00;;;16.20;99.90;;;;;;5008270;28;20303;-31
2023/08/04 04:41:05;;;;;;;7.57;4.13;;;16.20;99.90;;;;;;5022037;28;20656;-31
2023/08/04 04:43:36;;;;;;;5.60;3.57;;;16.20;99.90;;;;;;5010829;28;20231;-31
2023/08/04 04:46:05;;;;;;;7.37;3.57;;;16.20;99.90;;;;;;5026663;28;20968;-31
2023/08/04 04:48:33;;;;;;;8.27;4.27;;;16.30;99.90;;;;;;5010782;28;20282;-31
2023/08/04 04:51:02;;;;;;;7.87;4.00;;;16.30;99.90;;;;;;5009214;28;20264;-31
2023/08/04 04:53:29;;;;;;;10.87;4.40;;;16.30;99.90;;;;;;5008504;28;20201;-31
2023/08/04 04:55:59;;;;;;;7.10;4.03;;;16.30;99.90;;;;;;5023648;28;20560;-31
2023/08/04 04:58:26;;;;;;;7.67;4.37;;;16.30;99.90;;;;;;5026901;28;20220;-31
2023/08/04 05:01:05;;;;;;;7.07;4.33;;;16.40;99.90;;;;;;5024875;28;20357;-31
2023/08/04 05:03:42;;;;;;;8.37;4.83;;;16.40;99.90;;;;;;5019161;28;20216;-31
2023/08/04 05:06:10;;;;;;;9.17;4.30;;;16.40;99.90;;;;;;5024901;28;20220;-31
2023/08/04 05:08:37;;;;;;;5.73;3.77;;;16.40;99.90;;;;;;5019050;28;20243;-31
2023/08/04 05:11:04;;;;;;;9.07;4.67;;;16.40;99.90;;;;;;5026129;28;20205;-31
2023/08/04 05:13:34;;;;;;;5.17;3.90;;;16.50;99.90;;;;;;5021960;28;20205;-31
2023/08/04 05:16:04;;;;;;;6.70;4.10;;;16.50;99.90;;;;;;5022222;28;20221;-31
2023/08/04 05:18:33;;;;;;;6.00;4.30;;;16.50;99.90;;;;;;5008315;28;20206;-31
2023/08/04 05:21:01;;;;;;;8.27;4.03;;;16.50;99.90;;;;;;5022623;28;20212;-31
2023/08/04 05:23:28;;;;;;;8.63;4.20;;;16.50;99.90;;;;;;5026221;28;20233;-31
2023/08/04 05:25:57;;;;;;;7.30;4.50;;;16.60;99.90;;;;;;5028757;28;20576;-31
2023/08/04 05:28:32;;;;;;;7.43;4.53;;;16.60;99.90;;;;;;5027647;28;20254;-31
2023/08/04 05:31:08;;;;;;;13.03;4.53;;;16.60;99.90;;;;;;5020461;28;20885;-31
2023/08/04 05:33:35;;;;;;;9.20;4.50;;;16.60;99.90;;;;;;5006930;28;20197;-31
2023/08/04 05:36:03;;;;;;;7.83;4.10;;;16.70;99.90;;;;;;5025002;28;20774;-31
2023/08/04 05:38:30;;;;;;;8.67;4.63;;;16.70;99.90;;;;;;5013458;28;20658;-31
2023/08/04 05:41:02;;;;;;;11.48;4.35;;;16.70;99.90;;;;;;5024085;28;20209;-31
2023/08/04 05:43:31;;;;;;;6.60;4.13;;;16.80;99.90;;;;;;5014763;28;20248;-31
2023/08/04 05:46:05;;;;;;;6.33;3.97;;;16.80;99.90;;;;;;5021755;28;20918;-31
2023/08/04 05:48:36;;;;;;;7.93;4.00;;;16.90;99.90;;;;;;5016866;28;20618;-31
2023/08/04 05:51:03;;;;;;;8.63;4.20;;;16.90;99.90;;;;;;5011398;28;20237;-31
2023/08/04 05:53:31;;;;;;;6.00;4.30;;;16.90;99.90;;;;;;5015510;28;20208;-31
2023/08/04 05:55:58;;;;;;;10.17;4.50;;;17.00;99.90;;;;;;4998987;28;20212;-31
2023/08/04 05:58:33;;;;;;;8.13;5.00;;;17.00;99.90;;;;;;5043832;28;20569;-31
2023/08/04 06:01:01;;;;;;;8.60;4.57;;;17.10;99.90;;;;;;5039030;28;20293;-31
2023/08/04 06:03:31;;;;;;;7.30;4.67;;;17.10;99.90;;;;;;4997013;28;20233;-31
2023/08/04 06:06:01;;;;;;;6.60;4.40;;;17.20;99.90;;;;;;5012427;28;20692;-31
2023/08/04 06:08:29;;;;;;;8.73;4.60;;;17.20;99.90;;;;;;5022051;28;20518;-31
2023/08/04 06:10:58;;;;;;;10.77;4.73;;;17.30;99.90;;;;;;5024203;28;20201;-31
2023/08/04 06:13:26;;;;;;;7.70;4.40;;;17.30;99.90;;;;;;5018717;28;20282;-31
2023/08/04 06:15:53;;;;;;;9.80;4.77;;;17.40;99.90;;;;;;5013153;28;22200;-31
2023/08/04 06:18:20;;;;;;;9.83;4.90;;;17.50;99.90;;;;;;5011873;28;20629;-31
2023/08/04 06:20:53;;;;;;;6.83;4.30;;;17.50;99.90;;;;;;5023301;28;20737;-31
2023/08/04 06:23:20;;;;;;;12.18;5.47;;;17.60;99.90;;;;;;5022643;28;20702;-31
2023/08/04 06:25:50;;;;;;;12.03;5.07;;;17.70;99.90;;;;;;5026894;28;20201;-31
2023/08/04 06:28:17;;;;;;;7.53;4.70;;;17.70;99.90;;;;;;5023225;28;20228;-31
2023/08/04 06:30:48;;;;;;;10.97;4.60;;;17.70;99.90;;;;;;5025609;28;20213;-31
2023/08/04 06:33:16;;;;;;;9.32;5.30;;;17.80;99.90;;;;;;5025053;28;20628;-31
2023/08/04 06:35:44;;;;;;;11.93;5.27;;;17.90;99.90;;;;;;5017304;28;20209;-31
2023/08/04 06:38:21;;;;;;;7.68;4.45;;;17.90;99.90;;;;;;5020773;28;20245;-31
2023/08/04 06:40:48;;;;;;;14.60;5.47;;;18.00;99.90;;;;;;5032245;28;20716;-31
2023/08/04 06:43:20;;;;;;;9.10;4.97;;;18.00;99.90;;;;;;5015328;28;20231;-31
2023/08/04 06:45:49;;;;;;;8.43;4.30;;;18.10;99.90;;;;;;5009914;28;20198;-31
2023/08/04 06:48:19;;;;;;;10.50;4.93;;;18.20;99.90;;;;;;5007243;28;20216;-31
2023/08/04 06:50:48;;;;;;;7.47;4.40;;;18.30;99.90;;;;;;5026164;28;20704;-31
2023/08/04 06:53:15;;;;;;;6.55;4.00;;;18.40;99.90;;;;;;5007833;28;20217;-31
2023/08/04 06:55:45;;;;;;;10.53;4.20;;;18.50;99.90;;;;;;5024131;28;20201;-31
2023/08/04 06:58:15;;;;;;;8.00;3.92;;;18.60;99.90;;;;;;5007279;28;20202;-31
2023/08/04 07:00:43;;;;;;;5.68;4.10;;;18.60;99.90;;;;;;5042073;28;20200;-31
2023/08/04 07:03:12;;;;;;;7.93;4.07;;;18.70;99.90;;;;;;5046153;28;20256;-31
2023/08/04 07:05:43;;;;;;;8.30;4.03;;;18.70;99.90;;;;;;5027068;28;20219;-31
2023/08/04 07:08:10;;;;;;;7.13;4.30;;;18.80;99.90;;;;;;5007235;28;20583;-31
2023/08/04 07:10:40;;;;;;;5.05;3.83;;;18.80;99.90;;;;;;5011020;28;20210;-31
2023/08/04 07:13:08;;;;;;;6.33;3.63;;;18.80;99.90;;;;;;5006597;28;20221;-31
2023/08/04 07:15:36;;;;;;;7.28;4.10;;;18.80;99.90;;;;;;5023718;28;20205;-31
2023/08/04 07:18:06;;;;;;;7.88;4.40;;;18.90;99.90;;;;;;5010156;28;20237;-31
2023/08/04 07:20:33;;;;;;;7.18;3.60;;;18.90;99.90;;;;;;5006447;28;20221;-31
2023/08/04 07:23:00;;;;;;;5.70;3.85;;;18.90;99.90;;;;;;5013116;28;20541;-31
2023/08/04 07:25:30;;;;;;;8.27;4.30;;;18.90;99.90;;;;;;5019504;28;20550;-31
2023/08/04 07:28:02;;;;;;;6.55;4.10;;;19.00;99.90;;;;;;5019060;28;20565;-31
2023/08/04 07:30:32;;;;;;;4.95;3.85;;;19.00;99.90;;;;;;5020346;28;20209;-31
2023/08/04 07:33:04;;;;;;;7.22;4.45;;;19.00;99.90;;;;;;5026484;28;20225;-31
2023/08/04 07:35:33;;;;;;;7.63;4.27;;;19.00;99.90;;;;;;5025761;28;20529;-31
2023/08/04 07:38:01;;;;;;;6.15;4.30;;;19.10;99.90;;;;;;5014274;28;20237;-31
2023/08/04 07:40:30;;;;;;;6.30;3.60;;;19.10;99.90;;;;;;5019224;28;20225;-31
2023/08/04 07:42:57;;;;;;;5.95;3.95;;;19.20;99.90;;;;;;5022451;28;20225;-31
2023/08/04 07:45:28;;;;;;;5.93;3.60;;;19.20;99.90;;;;;;5012962;28;20252;-31
2023/08/04 07:47:55;;;;;;;5.50;3.72;;;19.30;99.90;;;;;;5013494;28;20205;-31
2023/08/04 07:50:23;;;;;;;4.47;3.37;;;19.30;99.90;;;;;;5014171;28;20201;-31
2023/08/04 07:52:50;;;;;;;5.30;3.20;;;19.40;99.90;;;;;;5020426;28;20209;-31
2023/08/04 07:55:17;;;;;;;7.03;3.40;;;19.40;99.90;;;;;;5024063;28;20290;-32
2023/08/04 07:57:44;;;;;;;4.65;3.40;;;19.40;99.90;;;;;;5003488;28;20259;-31
2023/08/04 08:00:12;;;;;;;5.30;3.33;;;19.50;99.90;;;;;;5018436;28;20629;-31
2023/08/04 08:02:39;;;;;;;3.72;2.75;;;19.50;99.90;;;;;;5018746;28;20610;-31
2023/08/04 08:05:10;;;;;;;5.57;3.10;;;19.50;99.90;;;;;;5005949;28;20751;-31
2023/08/04 08:07:39;;;;;;;6.70;3.70;;;19.50;99.90;;;;;;4994764;28;20243;-31
2023/08/04 08:10:12;;;;;;;6.50;3.38;;;19.50;99.90;;;;;;5026989;28;20196;-31
2023/08/04 08:12:48;;;;;;;5.07;3.30;;;19.50;99.90;;;;;;5026813;28;20284;-31
2023/08/04 08:15:15;;;;;;;3.15;2.85;;;19.50;99.90;;;;;;5025291;28;20221;-31
2023/08/04 08:17:49;;;;;;;4.78;3.28;;;19.50;99.90;;;;;;5024017;28;20224;-31
2023/08/04 08:20:16;;;;;;;7.72;3.60;;;19.50;99.90;;;;;;5013835;28;20654;-32
2023/08/04 08:22:46;;;;;;;6.57;3.40;;;19.50;99.90;;;;;;5003189;28;20710;-31
2023/08/04 08:25:13;;;;;;;6.60;3.30;;;19.50;99.90;;;;;;5007698;28;20210;-31
2023/08/04 08:27:40;;;;;;;7.28;3.53;;;19.50;99.90;;;;;;5006194;28;20232;-31
2023/08/04 08:30:08;;;;;;;4.88;3.28;;;19.50;99.90;;;;;;5022159;28;20205;-31
2023/08/04 08:32:37;;;;;;;5.73;3.60;;;19.50;99.90;;;;;;5014337;28;20227;-31
2023/08/04 08:35:05;;;;;;;3.88;3.42;;;19.50;99.90;;;;;;5015431;28;20340;-31
2023/08/04 08:37:35;;;;;;;4.47;3.50;;;19.50;99.90;;;;;;5016347;28;20245;-30
2023/08/04 08:40:03;;;;;;;6.22;3.20;;;19.50;99.90;;;;;;5023286;28;20268;-31
2023/08/04 08:42:33;;;;;;;4.40;3.05;;;19.50;99.90;;;;;;5017343;28;20202;-31
2023/08/04 08:45:00;;;;;;;5.97;3.13;;;19.50;99.90;;;;;;5023871;28;20257;-30
2023/08/04 08:47:36;;;;;;;5.43;3.40;;;19.50;99.90;;;;;;5016277;28;20627;-30
2023/08/04 08:50:08;;;;;;;3.80;2.73;;;19.50;99.90;;;;;;5014290;28;20355;-24
2023/08/04 08:52:38;;;;;;;3.80;2.50;;;19.50;99.90;;;;;;5009807;28;20212;-31
2023/08/04 08:55:06;;;;;;;3.20;2.90;;;19.60;99.90;;;;;;5014908;28;20227;-30
2023/08/04 08:57:34;;;;;;;5.22;2.92;;;19.60;99.90;;;;;;5011791;28;20815;-30
2023/08/04 09:00:04;;;;;;;3.22;2.75;;;19.60;99.90;;;;;;5012946;28;20216;-30
2023/08/04 09:02:32;;;;;;;3.10;2.80;;;19.70;99.90;;;;;;5009658;28;20225;-31
2023/08/04 09:05:05;;;;;;;4.03;2.90;;;19.70;99.90;;;;;;5017643;28;20221;-31
2023/08/04 09:07:35;;;;;;;4.20;2.50;;;19.80;99.90;;;;;;5020256;28;20204;-31
2023/08/04 09:10:03;;;;;;;6.70;3.00;;;19.80;99.90;;;;;;4993767;28;20214;-30
2023/08/04 09:12:34;;;;;;;3.42;2.80;;;19.80;99.90;;;;;;5020885;28;20213;-30
2023/08/04 09:15:03;;;;;;;4.00;2.60;;;19.80;99.90;;;;;;5016658;28;20729;-30
2023/08/04 09:17:35;;;;;;;4.40;2.90;;;19.90;99.90;;;;;;5023513;28;20308;-30
2023/08/04 09:20:05;;;;;;;3.17;2.70;;;19.90;99.90;;;;;;5024419;28;20229;-30
2023/08/04 09:22:39;;;;;;;3.03;2.33;;;19.90;99.90;;;;;;5023356;28;20287;-30
2023/08/04 09:25:08;;;;;;;3.13;2.83;;;20.00;99.90;;;;;;5014939;28;20241;-31
2023/08/04 09:27:43;;;;;;;4.53;2.70;;;20.00;99.90;;;;;;5009482;28;20229;-31
2023/08/04 09:30:11;;;;;;;5.80;2.58;;;20.00;99.90;;;;;;5026063;28;20248;-30
2023/08/04 09:32:50;;;;;;;4.18;2.75;;;20.00;99.90;;;;;;5019516;28;20196;-31
2023/08/04 09:35:20;;;;;;;9.05;2.75;;;20.10;99.90;;;;;;5011421;28;20260;-31
2023/08/04 09:37:47;;;;;;;4.00;2.25;;;20.10;99.90;;;;;;5018884;28;20229;-30
2023/08/04 09:40:19;;;;;;;3.50;2.80;;;20.20;99.90;;;;;;5019227;28;20205;-31
2023/08/04 09:42:47;;;;;;;3.40;2.65;;;20.20;99.90;;;;;;5011576;28;20212;-31
2023/08/04 09:45:20;;;;;;;5.05;2.75;;;20.30;99.90;;;;;;5015127;28;20316;-31
2023/08/04 09:47:50;;;;;;;2.93;2.37;;;20.40;99.90;;;;;;5015875;28;20290;-31
2023/08/04 09:50:18;;;;;;;3.78;2.65;;;20.50;99.90;;;;;;5006949;28;20268;-31
2023/08/04 09:52:46;;;;;;;7.67;3.17;;;20.50;99.90;;;;;;5024326;28;20214;-31
2023/08/04 09:55:15;;;;;;;4.43;2.83;;;20.60;99.90;;;;;;5016911;28;20571;-31
2023/08/04 09:57:44;;;;;;;3.40;2.70;;;20.60;99.90;;;;;;5014378;28;20193;-31
2023/08/04 10:00:18;;;;;;;3.22;2.35;;;20.70;99.90;;;;;;5014427;28;20223;-31
2023/08/04 10:02:46;;;;;;;4.50;2.90;;;20.80;99.90;;;;;;5012622;28;20672;-31
2023/08/04 10:05:16;;;;;;;4.27;2.80;;;20.90;99.90;;;;;;5006739;28;20683;-31
2023/08/04 10:07:49;;;;;;;4.15;3.22;;;21.00;99.90;;;;;;5017934;28;20220;-31
2023/08/04 10:10:19;;;;;;;5.07;3.10;;;21.00;99.90;;;;;;5024866;28;20292;-31
2023/08/04 10:12:47;;;;;;;5.30;3.42;;;21.00;99.90;;;;;;5019663;28;20259;-31
2023/08/04 10:15:14;;;;;;;4.70;3.50;;;21.00;99.90;;;;;;5025909;28;20684;-31
2023/08/04 10:17:42;;;;;;;4.70;3.72;;;21.10;99.90;;;;;;4984852;28;20235;-31
2023/08/04 10:20:09;;;;;;;5.18;3.30;;;21.10;99.90;;;;;;4998695;28;20662;-31
2023/08/04 10:22:43;;;;;;;5.55;3.53;;;21.00;99.90;;;;;;5010725;28;20213;-31
2023/08/04 10:25:13;;;;;;;5.50;3.38;;;21.10;99.90;;;;;;5023214;28;20543;-31
2023/08/04 10:27:52;;;;;;;4.38;3.08;;;21.10;99.90;;;;;;5008012;28;20216;-31
2023/08/04 10:30:24;;;;;;;4.95;3.10;;;21.10;99.90;;;;;;4992982;28;20219;-31
2023/08/04 10:33:19;;;;;;;4.85;3.15;;;21.20;99.90;;;;;;5018525;28;20320;-31
2023/08/04 10:36:10;;;;;;;4.45;3.10;;;21.20;99.90;;;;;;5030893;28;20193;-31
2023/08/04 10:38:49;;;;;;;4.38;3.20;;;21.30;99.90;;;;;;5024390;28;20786;-31
2023/08/04 10:41:19;;;;;;;4.63;3.10;;;21.30;99.90;;;;;;5025362;28;20221;-31
2023/08/04 10:44:00;;;;;;;5.20;3.28;;;21.40;99.90;;;;;;5003577;28;20247;-32
2023/08/04 10:46:28;;;;;;;5.18;3.50;;;21.40;99.90;;;;;;5007065;28;20774;-31
2023/08/04 10:48:59;;;;;;;5.53;3.25;;;21.50;99.90;;;;;;5021455;28;20304;-31
2023/08/04 10:51:26;;;;;;;6.72;2.75;;;21.50;99.90;;;;;;5012478;28;20319;-31
2023/08/04 10:53:56;;;;;;;4.35;2.47;;;21.50;99.90;;;;;;5023055;28;20201;-31
2023/08/04 10:56:23;;;;;;;5.43;2.72;;;21.60;99.90;;;;;;5015256;28;20212;-31
2023/08/04 10:58:50;;;;;;;4.97;2.30;;;21.60;99.90;;;;;;5035580;28;20231;-31
2023/08/04 11:01:17;;;;;;;3.88;2.20;;;21.70;99.90;;;;;;5037857;28;20201;-31
2023/08/04 11:03:49;;;;;;;4.57;2.47;;;21.70;99.90;;;;;;5024526;28;20268;-31
2023/08/04 11:06:18;;;;;;;7.05;3.00;;;21.70;99.90;;;;;;5024994;28;20347;-31
2023/08/04 11:08:45;;;;;;;5.10;2.15;;;21.60;99.90;;;;;;5010112;28;20205;-31
2023/08/04 11:11:14;;;;;;;4.07;2.20;;;21.50;99.90;;;;;;5021489;28;20205;-31
2023/08/04 11:13:42;;;;;;;7.85;2.60;;;21.40;99.90;;;;;;5019070;28;20280;-31
2023/08/04 11:16:16;;;;;;;4.80;2.45;;;21.30;99.90;;;;;;5019572;28;20748;-31
2023/08/04 11:18:43;;;;;;;3.08;2.28;;;21.30;99.90;;;;;;5025179;28;20217;-31
2023/08/04 11:21:17;;;;;;;5.43;2.38;;;21.30;99.90;;;;;;5021647;28;20212;-31
2023/08/04 11:23:44;;;;;;;4.85;2.60;;;21.30;99.90;;;;;;5023670;28;20711;-31
2023/08/04 11:26:11;;;;;;;4.72;2.08;;;21.30;99.90;;;;;;5016498;28;20213;-31
2023/08/04 11:28:39;;;;;;;4.60;2.40;;;21.30;99.90;;;;;;5017017;28;20216;-31
2023/08/04 11:31:07;;;;;;;3.65;2.00;;;21.30;99.90;;;;;;5021403;28;20210;-31
2023/08/04 11:33:34;;;;;;;5.78;2.33;;;21.30;99.90;;;;;;5012855;28;20201;-31
2023/08/04 11:36:03;;;;;;;3.30;1.77;;;21.40;99.90;;;;;;5011124;28;20201;-31
2023/08/04 11:38:31;;;;;;;3.92;2.13;;;21.40;99.90;;;;;;5005326;28;20233;-31
2023/08/04 11:41:00;;;;;;;2.50;2.00;;;21.50;99.90;;;;;;5017927;28;20201;-31
2023/08/04 11:43:35;;;;;;;2.85;1.85;;;21.50;99.90;;;;;;5014323;28;20228;-31
2023/08/04 11:46:24;;;;;;;3.58;1.95;;;21.60;99.90;;;;;;5003894;28;20236;-31
2023/08/04 11:48:50;;;;;;;3.10;2.00;;;21.70;99.90;;;;;;5019132;28;20242;-31
2023/08/04 11:51:17;;;;;;;2.92;1.92;;;21.70;99.90;;;;;;5023779;28;20682;-31
2023/08/04 11:53:45;;;;;;;5.72;1.50;;;21.70;99.90;;;;;;5024059;28;20671;-31
2023/08/04 11:56:13;;;;;;;3.78;1.90;;;21.80;99.90;;;;;;5010830;28;20208;-31
2023/08/04 11:59:11;;;;;;;3.72;1.60;;;21.60;99.90;;;;;;5006712;28;20243;-32
2023/08/04 12:01:40;;;;;;;2.85;1.48;;;21.60;99.90;;;;;;5034189;28;20727;-32
2023/08/04 12:04:27;;;;;;;2.83;1.70;;;21.50;99.90;;;;;;5023307;28;20319;-31
2023/08/04 12:07:05;;;;;;;3.22;1.50;;;21.50;99.90;;;;;;5009168;28;20217;-31
2023/08/04 12:09:35;;;;;;;3.55;1.55;;;21.60;99.90;;;;;;5007950;28;20345;-31
2023/08/04 12:12:05;;;;;;;3.42;1.27;;;21.60;99.90;;;;;;5013132;28;21238;-31
2023/08/04 12:14:36;;;;;;;2.65;1.25;;;21.60;99.90;;;;;;5013031;28;20569;-32
2023/08/04 12:17:38;;;;;;;2.22;1.27;;;21.60;99.90;;;;;;5015467;28;20209;-31
2023/08/04 12:20:08;;;;;;;3.90;1.55;;;21.40;99.90;;;;;;5022332;28;20678;-32
2023/08/04 12:22:41;;;;;;;2.55;1.13;;;21.30;99.90;;;;;;5008996;28;20262;-31
2023/08/04 12:25:09;;;;;;;2.55;1.20;;;21.30;99.90;;;;;;5023129;28;20299;-32
2023/08/04 12:27:36;;;;;;;2.83;1.30;;;21.30;99.90;;;;;;5018887;28;20205;-32
2023/08/04 12:30:04;;;;;;;1.90;1.27;;;21.30;99.90;;;;;;5017298;28;20193;-31
2023/08/04 12:32:31;;;;;;;1.42;1.20;;;21.30;99.90;;;;;;5016317;28;20220;-31
2023/08/04 12:34:59;;;;;;;3.47;1.23;;;21.40;99.90;;;;;;5009812;28;20830;-31
2023/08/04 12:37:31;;;;;;;1.45;1.25;;;21.40;99.90;;;;;;5023810;28;20213;-31
2023/08/04 12:39:58;;;;;;;2.55;1.00;;;21.50;99.90;;;;;;5024545;28;20333;-32
2023/08/04 12:42:27;;;;;;;1.00;0.90;;;21.60;99.90;;;;;;5002581;28;20212;-32
2023/08/04 12:44:56;;;;;;;1.30;0.90;;;21.60;99.90;;;;;;5008790;28;20688;-32
2023/08/04 12:47:33;;;;;;;1.75;0.70;;;21.70;99.90;;;;;;5017097;28;20213;-32
2023/08/04 12:50:01;;;;;;;1.70;0.88;;;21.70;99.90;;;;;;5026911;28;20205;-31
2023/08/04 12:52:31;;;;;;;1.25;1.10;;;21.70;99.90;;;;;;5008021;28;20198;-31
2023/08/04 12:55:00;;;;;;;0.98;0.90;;;21.70;99.90;;;;;;5022632;28;20485;-32
2023/08/04 12:57:34;;;;;;;1.20;0.80;;;21.60;99.90;;;;;;5025292;28;20292;-24
2023/08/04 13:00:02;;;;;;;2.15;1.00;;;21.60;99.90;;;;;;5021217;28;20197;-24